createdAt,value
2023-12-09T00:02:12.162Z,52.04
2023-12-09T00:04:39.533Z,52.00
2023-12-09T00:07:07.030Z,52.03
2023-12-09T00:09:34.470Z,52.03
2023-12-09T00:12:01.876Z,51.94
2023-12-09T00:14:29.221Z,52.05
2023-12-09T00:16:56.678Z,52.01
2023-12-09T00:19:24.030Z,52.01
2023-12-09T00:21:51.390Z,51.81
2023-12-09T00:24:18.678Z,52.03
2023-12-09T00:26:45.990Z,52.03
2023-12-09T00:29:13.337Z,51.95
2023-12-09T00:31:40.803Z,52.01
2023-12-09T00:34:08.210Z,52.07
2023-12-09T00:36:35.757Z,51.92
2023-12-09T00:39:03.095Z,51.89
2023-12-09T00:41:30.629Z,51.99
2023-12-09T00:43:57.875Z,51.94
2023-12-09T00:46:25.131Z,51.93
2023-12-09T00:48:52.481Z,51.91
2023-12-09T00:51:20.069Z,51.95
2023-12-09T00:53:47.408Z,51.92
2023-12-09T00:56:14.938Z,51.88
2023-12-09T00:59:00.115Z,52.01
2023-12-09T01:01:27.408Z,51.81
2023-12-09T01:03:54.867Z,51.94
2023-12-09T01:06:22.412Z,51.86
2023-12-09T01:08:49.763Z,51.93
2023-12-09T01:11:17.088Z,51.88
2023-12-09T01:13:44.651Z,51.90
2023-12-09T01:16:12.098Z,51.91
2023-12-09T01:18:39.569Z,51.90
2023-12-09T01:21:07.150Z,51.86
2023-12-09T01:23:34.465Z,51.93
2023-12-09T01:26:01.718Z,51.82
2023-12-09T01:28:29.382Z,51.78
2023-12-09T01:30:56.648Z,51.79
2023-12-09T01:33:24.058Z,51.77
2023-12-09T01:35:51.533Z,51.84
2023-12-09T01:38:18.899Z,51.86
2023-12-09T01:40:54.035Z,51.89
2023-12-09T01:43:21.384Z,51.78
2023-12-09T01:45:48.839Z,51.77
2023-12-09T01:48:17.299Z,51.76
2023-12-09T01:50:44.936Z,51.75
2023-12-09T01:53:15.753Z,51.84
2023-12-09T01:55:46.043Z,51.74
2023-12-09T01:58:19.778Z,51.76
2023-12-09T02:00:51.645Z,51.72
2023-12-09T02:03:26.418Z,51.78
2023-12-09T02:05:57.038Z,51.73
2023-12-09T02:08:28.878Z,51.78
2023-12-09T02:11:24.099Z,51.81
2023-12-09T02:13:59.439Z,51.78
2023-12-09T02:16:42.568Z,51.79
2023-12-09T02:19:13.394Z,51.76
2023-12-09T02:22:00.410Z,51.70
2023-12-09T02:24:27.861Z,51.69
2023-12-09T02:26:55.383Z,51.77
2023-12-09T02:29:23.409Z,51.74
2023-12-09T02:31:52.914Z,51.72
2023-12-09T02:34:20.751Z,51.69
2023-12-09T02:36:50.292Z,51.66
2023-12-09T02:39:19.035Z,51.73
2023-12-09T02:41:46.429Z,51.69
2023-12-09T02:44:13.888Z,51.81
2023-12-09T02:46:41.133Z,51.70
2023-12-09T02:49:08.611Z,51.70
2023-12-09T02:51:35.975Z,51.72
2023-12-09T02:54:03.359Z,51.68
2023-12-09T02:56:30.752Z,51.73
2023-12-09T02:58:57.997Z,51.74
2023-12-09T03:01:25.299Z,51.66
2023-12-09T03:03:52.749Z,51.71
2023-12-09T03:06:20.180Z,51.64
2023-12-09T03:08:47.415Z,51.76
2023-12-09T03:11:14.561Z,51.78
2023-12-09T03:13:41.812Z,51.80
2023-12-09T03:16:09.783Z,51.64
2023-12-09T03:18:37.153Z,51.75
2023-12-09T03:21:05.106Z,51.76
2023-12-09T03:23:32.354Z,51.62
2023-12-09T03:25:59.606Z,51.70
2023-12-09T03:28:26.852Z,51.62
2023-12-09T03:30:54.215Z,51.71
2023-12-09T03:33:21.483Z,51.71
2023-12-09T03:35:48.807Z,51.71
2023-12-09T03:38:16.066Z,51.63
2023-12-09T03:40:43.314Z,51.61
2023-12-09T03:43:10.582Z,51.68
2023-12-09T03:45:37.976Z,51.72
2023-12-09T03:48:06.828Z,51.59
2023-12-09T03:50:34.265Z,51.75
2023-12-09T03:53:01.516Z,51.67
2023-12-09T03:55:28.867Z,51.51
2023-12-09T03:57:56.935Z,51.54
2023-12-09T04:00:24.238Z,51.53
2023-12-09T04:02:51.626Z,51.62
2023-12-09T04:05:19.178Z,51.57
2023-12-09T04:07:46.554Z,51.60
2023-12-09T04:10:14.213Z,51.57
2023-12-09T04:12:42.025Z,51.52
2023-12-09T04:15:11.435Z,51.59
2023-12-09T04:17:38.897Z,51.62
2023-12-09T04:20:09.038Z,51.57
2023-12-09T04:22:40.304Z,51.66
2023-12-09T04:25:07.855Z,51.46
2023-12-09T04:27:35.128Z,51.57
2023-12-09T04:30:02.826Z,51.62
2023-12-09T04:32:33.615Z,51.55
2023-12-09T04:35:00.966Z,51.54
2023-12-09T04:37:28.209Z,51.58
2023-12-09T04:39:55.462Z,51.55
2023-12-09T04:42:22.747Z,51.51
2023-12-09T04:44:50.063Z,51.55
2023-12-09T04:47:18.139Z,51.57
2023-12-09T04:49:45.470Z,51.45
2023-12-09T04:52:12.844Z,51.60
2023-12-09T04:54:40.214Z,51.52
2023-12-09T04:57:07.748Z,51.57
2023-12-09T04:59:35.119Z,51.56
2023-12-09T05:02:02.359Z,51.55
2023-12-09T05:04:29.785Z,51.47
2023-12-09T05:06:57.243Z,51.54
2023-12-09T05:09:24.577Z,51.64
2023-12-09T05:11:52.292Z,51.56
2023-12-09T05:14:19.529Z,51.57
2023-12-09T05:16:46.784Z,51.59
2023-12-09T05:19:13.992Z,51.55
2023-12-09T05:21:41.316Z,51.49
2023-12-09T05:24:08.682Z,51.49
2023-12-09T05:26:35.990Z,51.42
2023-12-09T05:29:04.832Z,51.52
2023-12-09T05:31:32.132Z,51.44
2023-12-09T05:33:59.563Z,51.48
2023-12-09T05:36:26.981Z,51.46
2023-12-09T05:38:54.432Z,51.47
2023-12-09T05:41:21.647Z,51.46
2023-12-09T05:43:49.014Z,51.52
2023-12-09T05:46:20.597Z,51.44
2023-12-09T05:48:49.104Z,51.45
2023-12-09T05:51:16.560Z,51.49
2023-12-09T05:53:43.958Z,51.51
2023-12-09T05:56:13.218Z,51.49
2023-12-09T05:58:40.807Z,51.53
2023-12-09T06:01:08.813Z,51.51
2023-12-09T06:03:36.131Z,51.54
2023-12-09T06:06:05.064Z,51.51
2023-12-09T06:08:33.316Z,51.51
2023-12-09T06:11:00.544Z,51.46
2023-12-09T06:13:27.902Z,51.47
2023-12-09T06:15:55.145Z,51.43
2023-12-09T06:18:22.648Z,51.45
2023-12-09T06:20:50.167Z,51.45
2023-12-09T06:23:17.359Z,51.42
2023-12-09T06:25:44.557Z,51.42
2023-12-09T06:28:11.806Z,51.37
2023-12-09T06:30:39.086Z,51.41
2023-12-09T06:33:06.734Z,51.38
2023-12-09T06:35:34.076Z,51.49
2023-12-09T06:38:01.559Z,51.38
2023-12-09T06:40:28.782Z,51.44
2023-12-09T06:42:56.031Z,51.35
2023-12-09T06:45:23.306Z,51.42
2023-12-09T06:47:55.676Z,51.36
2023-12-09T06:50:23.208Z,51.28
2023-12-09T06:52:50.972Z,51.20
2023-12-09T06:55:18.226Z,51.11
2023-12-09T06:57:45.999Z,51.00
2023-12-09T07:00:14.392Z,50.95
2023-12-09T07:02:52.750Z,50.85
2023-12-09T07:05:28.074Z,50.79
2023-12-09T07:07:55.535Z,50.70
2023-12-09T07:10:22.819Z,50.81
2023-12-09T07:12:50.380Z,50.69
2023-12-09T07:15:18.068Z,50.65
2023-12-09T07:17:45.377Z,50.66
2023-12-09T07:20:12.983Z,50.67
2023-12-09T07:22:40.201Z,50.78
2023-12-09T07:25:08.071Z,50.73
2023-12-09T07:27:35.460Z,50.68
2023-12-09T07:30:03.168Z,50.76
2023-12-09T07:32:31.059Z,50.64
2023-12-09T07:34:58.606Z,50.60
2023-12-09T07:37:26.088Z,50.55
2023-12-09T07:39:53.726Z,50.40
2023-12-09T07:42:21.024Z,50.44
2023-12-09T07:44:49.103Z,50.39
2023-12-09T07:47:16.604Z,50.36
2023-12-09T07:49:44.100Z,50.24
2023-12-09T07:52:11.514Z,50.16
2023-12-09T07:54:38.802Z,50.12
2023-12-09T07:57:06.301Z,50.12
2023-12-09T07:59:33.698Z,50.06
2023-12-09T08:02:01.127Z,49.97
2023-12-09T08:04:28.442Z,49.95
2023-12-09T08:06:55.943Z,49.99
2023-12-09T08:09:23.213Z,50.00
2023-12-09T08:11:53.606Z,49.95
2023-12-09T08:14:21.293Z,49.93
2023-12-09T08:16:48.650Z,49.85
2023-12-09T08:19:16.107Z,49.94
2023-12-09T08:21:43.485Z,49.88
2023-12-09T08:24:10.846Z,49.92
2023-12-09T08:26:38.751Z,49.85
2023-12-09T08:29:06.320Z,49.90
2023-12-09T08:31:33.898Z,49.76
2023-12-09T08:34:01.239Z,49.78
2023-12-09T08:36:28.604Z,49.80
2023-12-09T08:38:56.386Z,49.73
2023-12-09T08:41:23.631Z,49.77
2023-12-09T08:43:53.134Z,49.70
2023-12-09T08:46:20.367Z,49.78
2023-12-09T08:48:47.818Z,49.69
2023-12-09T08:51:15.305Z,49.69
2023-12-09T08:53:42.617Z,49.65
2023-12-09T08:56:09.973Z,49.68
2023-12-09T08:58:37.220Z,49.69
2023-12-09T09:01:04.767Z,49.66
2023-12-09T09:03:32.376Z,49.78
2023-12-09T09:05:59.749Z,49.86
2023-12-09T09:08:29.509Z,49.81
2023-12-09T09:10:59.618Z,49.85
2023-12-09T09:13:29.019Z,49.93
2023-12-09T09:15:56.292Z,49.80
2023-12-09T09:18:23.609Z,49.85
2023-12-09T09:20:51.298Z,49.86
2023-12-09T09:23:18.538Z,49.94
2023-12-09T09:25:46.195Z,49.82
2023-12-09T09:28:13.452Z,49.92
2023-12-09T09:30:40.730Z,49.81
2023-12-09T09:33:08.326Z,49.80
2023-12-09T09:35:35.725Z,49.79
2023-12-09T09:38:02.967Z,49.83
2023-12-09T09:40:30.430Z,49.84
2023-12-09T09:42:58.490Z,49.93
2023-12-09T09:45:32.990Z,49.93
2023-12-09T09:48:08.393Z,49.93
2023-12-09T09:50:40.558Z,49.95
2023-12-09T09:53:09.159Z,49.88
2023-12-09T09:55:37.177Z,50.07
2023-12-09T09:58:04.520Z,49.93
2023-12-09T10:00:31.798Z,49.98
2023-12-09T10:03:01.013Z,49.96
2023-12-09T10:05:29.349Z,49.90
2023-12-09T10:07:56.927Z,49.84
2023-12-09T10:10:24.182Z,49.94
2023-12-09T10:12:52.113Z,49.80
2023-12-09T10:15:19.573Z,49.88
2023-12-09T10:17:47.121Z,49.97
2023-12-09T10:20:15.006Z,50.01
2023-12-09T10:22:42.880Z,49.96
2023-12-09T10:25:10.132Z,50.14
2023-12-09T10:27:41.851Z,50.00
2023-12-09T10:30:10.124Z,49.94
2023-12-09T10:32:37.656Z,49.93
2023-12-09T10:35:06.317Z,49.92
2023-12-09T10:37:33.544Z,49.94
2023-12-09T10:40:02.589Z,50.01
2023-12-09T10:42:30.764Z,49.96
2023-12-09T10:44:58.637Z,49.80
2023-12-09T10:47:26.780Z,49.97
2023-12-09T10:49:54.032Z,49.92
2023-12-09T10:52:21.451Z,49.89
2023-12-09T10:54:49.118Z,49.89
2023-12-09T10:57:16.934Z,49.97
2023-12-09T10:59:44.943Z,49.90
2023-12-09T11:02:12.808Z,50.02
2023-12-09T11:04:40.298Z,50.01
2023-12-09T11:07:08.329Z,49.94
2023-12-09T11:09:35.717Z,49.97
2023-12-09T11:12:03.286Z,50.00
2023-12-09T11:14:30.809Z,50.07
2023-12-09T11:17:03.177Z,49.99
2023-12-09T11:19:31.047Z,50.13
2023-12-09T11:21:58.904Z,49.98
2023-12-09T11:24:29.891Z,50.16
2023-12-09T11:26:57.400Z,50.13
2023-12-09T11:29:26.801Z,50.04
2023-12-09T11:31:55.280Z,50.08
2023-12-09T11:34:25.537Z,49.99
2023-12-09T11:36:54.086Z,50.08
2023-12-09T11:39:22.419Z,50.04
2023-12-09T11:41:50.766Z,49.99
2023-12-09T11:44:17.995Z,50.03
2023-12-09T11:46:47.120Z,49.90
2023-12-09T11:49:14.783Z,49.96
2023-12-09T11:51:42.347Z,49.93
2023-12-09T11:54:10.465Z,50.01
2023-12-09T11:56:39.355Z,50.09
2023-12-09T11:59:07.035Z,49.99
2023-12-09T12:01:35.474Z,49.92
2023-12-09T12:04:02.930Z,49.95
2023-12-09T12:06:30.854Z,49.92
2023-12-09T12:08:58.231Z,49.90
2023-12-09T12:11:26.243Z,49.98
2023-12-09T12:13:53.713Z,50.06
2023-12-09T12:16:21.071Z,50.01
2023-12-09T12:18:49.379Z,49.94
2023-12-09T12:21:17.221Z,50.01
2023-12-09T12:23:45.927Z,49.94
2023-12-09T12:26:14.721Z,49.99
2023-12-09T12:28:42.431Z,49.98
2023-12-09T12:31:12.003Z,49.97
2023-12-09T12:33:41.853Z,50.02
2023-12-09T12:36:10.381Z,49.98
2023-12-09T12:38:37.678Z,50.15
2023-12-09T12:41:05.362Z,50.08
2023-12-09T12:43:33.099Z,50.15
2023-12-09T12:46:01.151Z,50.06
2023-12-09T12:48:29.091Z,50.12
2023-12-09T12:50:56.844Z,50.10
2023-12-09T12:53:24.623Z,50.14
2023-12-09T12:55:53.967Z,50.03
2023-12-09T12:58:21.219Z,50.08
2023-12-09T13:00:54.056Z,50.10
2023-12-09T13:03:21.763Z,50.03
2023-12-09T13:05:49.286Z,50.12
2023-12-09T13:08:16.677Z,50.07
2023-12-09T13:10:44.869Z,50.05
2023-12-09T13:13:12.503Z,50.11
2023-12-09T13:15:39.906Z,50.14
2023-12-09T13:18:10.350Z,50.03
2023-12-09T13:20:39.484Z,50.05
2023-12-09T13:23:06.861Z,50.15
2023-12-09T13:25:34.195Z,50.09
2023-12-09T13:28:01.435Z,50.09
2023-12-09T13:30:28.922Z,50.04
2023-12-09T13:33:02.005Z,50.07
2023-12-09T13:35:30.060Z,50.15
2023-12-09T13:37:58.605Z,50.06
2023-12-09T13:40:27.227Z,50.12
2023-12-09T13:42:54.630Z,50.13
2023-12-09T13:45:23.107Z,50.04
2023-12-09T13:47:50.629Z,50.11
2023-12-09T13:50:18.270Z,50.07
2023-12-09T13:52:45.625Z,50.03
2023-12-09T13:55:12.980Z,49.97
2023-12-09T13:57:40.485Z,50.10
2023-12-09T14:00:09.527Z,50.12
2023-12-09T14:02:40.820Z,50.09
2023-12-09T14:05:11.651Z,50.01
2023-12-09T14:07:39.599Z,50.05
2023-12-09T14:10:07.662Z,50.01
2023-12-09T14:12:35.158Z,50.08
2023-12-09T14:15:03.290Z,50.07
2023-12-09T14:17:30.942Z,50.07
2023-12-09T14:19:58.300Z,50.06
2023-12-09T14:22:25.944Z,50.11
2023-12-09T14:24:53.409Z,50.10
2023-12-09T14:27:20.873Z,50.04
2023-12-09T14:29:48.210Z,50.16
2023-12-09T14:32:15.562Z,50.11
2023-12-09T14:34:43.089Z,50.15
2023-12-09T14:37:10.472Z,50.12
2023-12-09T14:39:37.741Z,50.21
2023-12-09T14:42:05.480Z,50.20
2023-12-09T14:44:32.845Z,50.11
2023-12-09T14:47:02.140Z,50.18
2023-12-09T14:49:30.292Z,50.22
2023-12-09T14:51:57.807Z,50.20
2023-12-09T14:54:25.158Z,50.25
2023-12-09T14:56:53.187Z,50.19
2023-12-09T14:59:21.685Z,50.14
2023-12-09T15:01:49.219Z,50.24
2023-12-09T15:04:16.597Z,50.18
2023-12-09T15:06:44.978Z,50.21
2023-12-09T15:09:14.723Z,50.17
2023-12-09T15:11:43.871Z,50.14
2023-12-09T15:14:11.138Z,50.13
2023-12-09T15:16:38.467Z,50.28
2023-12-09T15:19:06.003Z,50.21
2023-12-09T15:21:34.432Z,50.23
2023-12-09T15:24:02.129Z,50.25
2023-12-09T15:26:29.617Z,50.21
2023-12-09T15:28:56.991Z,50.22
2023-12-09T15:31:24.440Z,50.17
2023-12-09T15:33:55.102Z,50.24
2023-12-09T15:36:22.652Z,50.16
2023-12-09T15:38:49.864Z,50.16
2023-12-09T15:41:17.216Z,50.30
2023-12-09T15:43:44.568Z,50.23
2023-12-09T15:46:11.831Z,50.27
2023-12-09T15:48:39.267Z,50.25
2023-12-09T15:51:08.625Z,50.15
2023-12-09T15:53:38.612Z,50.17
2023-12-09T15:56:07.199Z,50.06
2023-12-09T15:58:34.633Z,50.06
2023-12-09T16:01:03.077Z,50.12
2023-12-09T16:03:31.277Z,50.10
2023-12-09T16:05:58.636Z,50.16
2023-12-09T16:08:26.296Z,50.11
2023-12-09T16:10:53.562Z,50.17
2023-12-09T16:13:22.839Z,50.13
2023-12-09T16:15:50.304Z,50.06
2023-12-09T16:18:17.822Z,50.13
2023-12-09T16:20:45.312Z,50.09
2023-12-09T16:23:12.560Z,50.05
2023-12-09T16:25:40.121Z,49.96
2023-12-09T16:28:07.577Z,50.05
2023-12-09T16:30:35.039Z,50.07
2023-12-09T16:33:03.160Z,50.09
2023-12-09T16:35:30.773Z,50.13
2023-12-09T16:37:58.023Z,50.05
2023-12-09T16:40:25.388Z,50.19
2023-12-09T16:42:52.891Z,50.13
2023-12-09T16:45:20.315Z,50.08
2023-12-09T16:47:47.879Z,50.13
2023-12-09T16:50:16.536Z,50.18
2023-12-09T16:52:43.803Z,50.13
2023-12-09T16:55:11.182Z,50.12
2023-12-09T16:57:38.533Z,50.18
2023-12-09T17:00:09.825Z,50.13
2023-12-09T17:02:37.296Z,50.10
2023-12-09T17:05:05.325Z,50.13
2023-12-09T17:07:32.822Z,50.13
2023-12-09T17:10:00.325Z,50.15
2023-12-09T17:12:28.098Z,50.20
2023-12-09T17:14:55.492Z,50.19
2023-12-09T17:17:23.768Z,50.11
2023-12-09T17:19:51.107Z,50.23
2023-12-09T17:22:18.474Z,50.14
2023-12-09T17:24:45.739Z,50.18
2023-12-09T17:27:13.208Z,50.10
2023-12-09T17:29:41.360Z,50.13
2023-12-09T17:32:08.599Z,50.10
2023-12-09T17:34:36.316Z,50.28
2023-12-09T17:37:03.926Z,50.22
2023-12-09T17:39:31.224Z,50.17
2023-12-09T17:41:59.346Z,50.24
2023-12-09T17:44:26.600Z,50.15
2023-12-09T17:46:54.061Z,50.05
2023-12-09T17:49:22.399Z,50.16
2023-12-09T17:51:49.862Z,50.17
2023-12-09T17:54:17.291Z,50.08
2023-12-09T17:56:44.900Z,50.01
2023-12-09T17:59:13.384Z,50.06
2023-12-09T18:01:40.776Z,50.02
2023-12-09T18:04:08.160Z,50.14
2023-12-09T18:06:35.707Z,50.11
2023-12-09T18:09:03.113Z,49.99
2023-12-09T18:11:30.558Z,50.05
2023-12-09T18:13:58.006Z,50.08
2023-12-09T18:16:26.614Z,49.99
2023-12-09T18:18:53.937Z,50.00
2023-12-09T18:21:25.075Z,49.99
2023-12-09T18:23:52.513Z,49.99
2023-12-09T18:26:19.996Z,50.02
2023-12-09T18:28:47.519Z,49.99
2023-12-09T18:31:14.806Z,50.09
2023-12-09T18:33:42.813Z,50.08
2023-12-09T18:36:11.897Z,50.13
2023-12-09T18:38:39.223Z,50.04
2023-12-09T18:41:07.404Z,50.10
2023-12-09T18:43:34.753Z,50.00
2023-12-09T18:46:02.209Z,50.08
2023-12-09T18:48:30.852Z,50.04
2023-12-09T18:51:01.017Z,50.04
2023-12-09T18:53:28.807Z,50.05
2023-12-09T18:55:56.326Z,50.08
2023-12-09T18:58:23.734Z,50.01
2023-12-09T19:01:01.487Z,50.01
2023-12-09T19:03:32.824Z,50.13
2023-12-09T19:06:00.259Z,50.12
2023-12-09T19:08:27.593Z,50.11
2023-12-09T19:10:54.888Z,50.07
2023-12-09T19:13:22.352Z,50.06
2023-12-09T19:15:49.844Z,50.12
2023-12-09T19:18:17.307Z,50.20
2023-12-09T19:20:44.711Z,50.06
2023-12-09T19:23:11.959Z,50.08
2023-12-09T19:25:39.217Z,49.93
2023-12-09T19:28:06.463Z,49.98
2023-12-09T19:30:33.772Z,50.07
2023-12-09T19:33:01.947Z,50.04
2023-12-09T19:35:29.546Z,50.04
2023-12-09T19:37:57.115Z,50.07
2023-12-09T19:40:24.364Z,50.10
2023-12-09T19:42:53.061Z,50.06
2023-12-09T19:45:20.857Z,50.06
2023-12-09T19:47:48.308Z,49.96
2023-12-09T19:50:15.917Z,50.07
2023-12-09T19:52:43.277Z,50.23
2023-12-09T19:55:11.237Z,50.02
2023-12-09T19:57:38.743Z,50.09
2023-12-09T20:00:07.466Z,50.09
2023-12-09T20:02:35.568Z,50.00
2023-12-09T20:05:04.818Z,49.95
2023-12-09T20:07:32.109Z,50.01
2023-12-09T20:09:59.456Z,50.02
2023-12-09T20:12:26.915Z,50.10
2023-12-09T20:14:54.471Z,50.01
2023-12-09T20:17:21.756Z,50.07
2023-12-09T20:19:49.208Z,50.00
2023-12-09T20:22:16.626Z,50.21
2023-12-09T20:24:44.236Z,50.09
2023-12-09T20:27:11.692Z,49.97
2023-12-09T20:29:39.098Z,50.11
2023-12-09T20:32:06.870Z,50.09
2023-12-09T20:34:34.214Z,50.13
2023-12-09T20:37:02.750Z,49.99
2023-12-09T20:39:30.242Z,50.02
2023-12-09T20:41:57.635Z,50.06
2023-12-09T20:44:24.965Z,50.07
2023-12-09T20:46:52.276Z,50.07
2023-12-09T20:49:21.282Z,49.96
2023-12-09T20:51:49.172Z,50.08
2023-12-09T20:54:16.549Z,50.01
2023-12-09T20:56:44.493Z,50.17
2023-12-09T20:59:12.567Z,50.14
2023-12-09T21:01:46.658Z,50.03
2023-12-09T21:04:14.540Z,50.14
2023-12-09T21:06:42.005Z,50.04
2023-12-09T21:09:11.055Z,50.00
2023-12-09T21:11:39.464Z,50.05
2023-12-09T21:14:07.027Z,50.13
2023-12-09T21:16:35.023Z,50.13
2023-12-09T21:19:03.334Z,50.13
2023-12-09T21:21:31.653Z,50.06
2023-12-09T21:23:59.093Z,50.15
2023-12-09T21:26:26.463Z,50.10
2023-12-09T21:28:53.807Z,50.05
2023-12-09T21:31:21.164Z,50.04
2023-12-09T21:33:48.614Z,50.17
2023-12-09T21:36:16.509Z,50.09
2023-12-09T21:38:44.139Z,50.03
2023-12-09T21:41:21.637Z,50.19
2023-12-09T21:43:50.308Z,50.15
2023-12-09T21:46:22.071Z,50.11
2023-12-09T21:48:50.062Z,50.11
2023-12-09T21:51:18.247Z,50.03
2023-12-09T21:53:45.785Z,50.07
2023-12-09T21:56:22.833Z,50.23
2023-12-09T21:58:53.186Z,50.16
2023-12-09T22:01:20.938Z,50.08
2023-12-09T22:03:48.514Z,50.08
2023-12-09T22:06:16.240Z,50.13
2023-12-09T22:08:45.299Z,50.08
2023-12-09T22:11:13.024Z,50.24
2023-12-09T22:13:40.984Z,50.23
2023-12-09T22:16:08.924Z,50.12
2023-12-09T22:18:36.495Z,50.06
2023-12-09T22:21:04.201Z,50.15
2023-12-09T22:23:31.928Z,50.09
2023-12-09T22:25:59.286Z,50.12
2023-12-09T22:28:30.730Z,50.10
2023-12-09T22:30:57.945Z,50.04
2023-12-09T22:33:26.458Z,50.15
2023-12-09T22:35:53.814Z,50.21
2023-12-09T22:38:21.168Z,50.25
2023-12-09T22:40:48.720Z,50.17
2023-12-09T22:43:16.084Z,50.15
2023-12-09T22:45:43.488Z,50.14
2023-12-09T22:48:11.703Z,50.05
2023-12-09T22:50:39.060Z,50.00
2023-12-09T22:53:06.626Z,50.13
2023-12-09T22:55:34.483Z,50.11
2023-12-09T22:58:01.835Z,50.06
2023-12-09T23:00:33.114Z,50.06
2023-12-09T23:03:02.864Z,50.07
2023-12-09T23:05:30.347Z,50.16
2023-12-09T23:07:57.803Z,50.17
2023-12-09T23:10:25.193Z,50.13
2023-12-09T23:12:52.786Z,50.03
2023-12-09T23:15:22.180Z,50.13
2023-12-09T23:17:49.578Z,50.04
2023-12-09T23:20:17.342Z,50.04
2023-12-09T23:22:44.688Z,50.11
2023-12-09T23:25:11.940Z,50.15
2023-12-09T23:27:39.325Z,50.03
2023-12-09T23:30:07.985Z,50.09
2023-12-09T23:32:35.747Z,50.10
2023-12-09T23:35:03.298Z,50.16
2023-12-09T23:37:31.061Z,50.08
2023-12-09T23:39:58.341Z,50.02
2023-12-09T23:42:26.036Z,49.95
2023-12-09T23:44:53.762Z,50.10
2023-12-09T23:47:22.040Z,50.08
2023-12-09T23:49:49.472Z,50.08
2023-12-09T23:52:16.820Z,50.03
2023-12-09T23:54:44.354Z,49.95
2023-12-09T23:57:11.759Z,50.05
2023-12-09T23:59:39.801Z,50.06
